sensor_id;sensor_type;location;lat;lon;timestamp;P1;durP1;ratioP1;P2;durP2;ratioP2
32613;SDS011;19031;51.400;6.770;2023-04-03T00:01:15;3.20;;;1.20;;
32613;SDS011;19031;51.400;6.770;2023-04-03T00:03:41;3.90;;;1.63;;
32613;SDS011;19031;51.400;6.770;2023-04-03T00:06:07;2.90;;;1.67;;
32613;SDS011;19031;51.400;6.770;2023-04-03T00:08:34;4.38;;;2.30;;
32613;SDS011;19031;51.400;6.770;2023-04-03T00:11:00;2.28;;;1.63;;
32613;SDS011;19031;51.400;6.770;2023-04-03T00:13:26;2.90;;;1.98;;
32613;SDS011;19031;51.400;6.770;2023-04-03T00:15:52;1.67;;;1.20;;
32613;SDS011;19031;51.400;6.770;2023-04-03T00:18:18;3.47;;;1.92;;
32613;SDS011;19031;51.400;6.770;2023-04-03T00:20:43;4.03;;;1.88;;
32613;SDS011;19031;51.400;6.770;2023-04-03T00:23:09;11.38;;;1.40;;
32613;SDS011;19031;51.400;6.770;2023-04-03T00:25:35;3.03;;;1.65;;
32613;SDS011;19031;51.400;6.770;2023-04-03T00:28:01;3.35;;;1.65;;
32613;SDS011;19031;51.400;6.770;2023-04-03T00:30:27;3.65;;;1.38;;
32613;SDS011;19031;51.400;6.770;2023-04-03T00:32:53;4.28;;;1.63;;
32613;SDS011;19031;51.400;6.770;2023-04-03T00:35:19;2.25;;;1.45;;
32613;SDS011;19031;51.400;6.770;2023-04-03T00:37:46;3.10;;;1.98;;
32613;SDS011;19031;51.400;6.770;2023-04-03T00:40:13;2.22;;;1.55;;
32613;SDS011;19031;51.400;6.770;2023-04-03T00:42:40;2.95;;;1.50;;
32613;SDS011;19031;51.400;6.770;2023-04-03T00:47:35;4.63;;;1.98;;
32613;SDS011;19031;51.400;6.770;2023-04-03T00:50:02;3.22;;;2.03;;
32613;SDS011;19031;51.400;6.770;2023-04-03T00:52:28;2.92;;;1.52;;
32613;SDS011;19031;51.400;6.770;2023-04-03T00:54:56;4.90;;;1.90;;
32613;SDS011;19031;51.400;6.770;2023-04-03T00:57:26;3.67;;;1.40;;
32613;SDS011;19031;51.400;6.770;2023-04-03T00:59:57;4.45;;;2.17;;
32613;SDS011;19031;51.400;6.770;2023-04-03T01:02:28;3.78;;;2.28;;
32613;SDS011;19031;51.400;6.770;2023-04-03T01:04:53;4.20;;;1.45;;
32613;SDS011;19031;51.400;6.770;2023-04-03T01:07:21;4.88;;;1.92;;
32613;SDS011;19031;51.400;6.770;2023-04-03T01:09:49;2.40;;;1.63;;
32613;SDS011;19031;51.400;6.770;2023-04-03T01:12:21;3.45;;;2.00;;
32613;SDS011;19031;51.400;6.770;2023-04-03T01:14:53;4.13;;;2.20;;
32613;SDS011;19031;51.400;6.770;2023-04-03T01:25:26;8.38;;;2.85;;
32613;SDS011;19031;51.400;6.770;2023-04-03T01:27:52;2.97;;;1.80;;
32613;SDS011;19031;51.400;6.770;2023-04-03T01:30:18;3.15;;;1.88;;
32613;SDS011;19031;51.400;6.770;2023-04-03T01:32:46;3.80;;;2.53;;
32613;SDS011;19031;51.400;6.770;2023-04-03T01:35:11;5.72;;;2.08;;
32613;SDS011;19031;51.400;6.770;2023-04-03T01:37:37;3.55;;;2.03;;
32613;SDS011;19031;51.400;6.770;2023-04-03T01:40:03;2.83;;;2.25;;
32613;SDS011;19031;51.400;6.770;2023-04-03T01:42:30;3.83;;;2.22;;
32613;SDS011;19031;51.400;6.770;2023-04-03T01:44:56;8.60;;;2.22;;
32613;SDS011;19031;51.400;6.770;2023-04-03T01:47:21;3.58;;;2.00;;
32613;SDS011;19031;51.400;6.770;2023-04-03T01:49:47;5.25;;;2.63;;
32613;SDS011;19031;51.400;6.770;2023-04-03T01:52:13;5.35;;;2.85;;
32613;SDS011;19031;51.400;6.770;2023-04-03T01:54:38;8.55;;;2.88;;
32613;SDS011;19031;51.400;6.770;2023-04-03T01:57:04;5.68;;;3.13;;
32613;SDS011;19031;51.400;6.770;2023-04-03T01:59:29;4.57;;;3.03;;
32613;SDS011;19031;51.400;6.770;2023-04-03T02:01:55;4.60;;;2.45;;
32613;SDS011;19031;51.400;6.770;2023-04-03T02:04:21;6.40;;;2.60;;
32613;SDS011;19031;51.400;6.770;2023-04-03T02:06:46;4.57;;;2.90;;
32613;SDS011;19031;51.400;6.770;2023-04-03T02:09:12;4.00;;;1.40;;
32613;SDS011;19031;51.400;6.770;2023-04-03T02:11:37;3.53;;;2.15;;
32613;SDS011;19031;51.400;6.770;2023-04-03T02:14:03;3.58;;;2.55;;
32613;SDS011;19031;51.400;6.770;2023-04-03T02:16:29;6.50;;;3.35;;
32613;SDS011;19031;51.400;6.770;2023-04-03T02:18:55;6.18;;;2.85;;
32613;SDS011;19031;51.400;6.770;2023-04-03T02:21:21;5.88;;;2.95;;
32613;SDS011;19031;51.400;6.770;2023-04-03T02:23:47;4.53;;;2.95;;
32613;SDS011;19031;51.400;6.770;2023-04-03T02:26:13;6.07;;;2.80;;
32613;SDS011;19031;51.400;6.770;2023-04-03T02:28:40;4.00;;;2.60;;
32613;SDS011;19031;51.400;6.770;2023-04-03T02:31:08;5.13;;;3.47;;
32613;SDS011;19031;51.400;6.770;2023-04-03T02:33:35;4.35;;;2.92;;
32613;SDS011;19031;51.400;6.770;2023-04-03T02:36:02;9.30;;;3.05;;
32613;SDS011;19031;51.400;6.770;2023-04-03T02:38:31;4.05;;;2.70;;
32613;SDS011;19031;51.400;6.770;2023-04-03T02:41:01;5.07;;;2.80;;
32613;SDS011;19031;51.400;6.770;2023-04-03T02:43:28;4.60;;;3.30;;
32613;SDS011;19031;51.400;6.770;2023-04-03T02:45:53;3.50;;;2.58;;
32613;SDS011;19031;51.400;6.770;2023-04-03T02:48:19;8.18;;;3.65;;
32613;SDS011;19031;51.400;6.770;2023-04-03T02:50:44;4.95;;;2.92;;
32613;SDS011;19031;51.400;6.770;2023-04-03T02:53:10;4.05;;;2.63;;
32613;SDS011;19031;51.400;6.770;2023-04-03T02:55:35;3.75;;;2.67;;
32613;SDS011;19031;51.400;6.770;2023-04-03T02:58:01;3.47;;;2.00;;
32613;SDS011;19031;51.400;6.770;2023-04-03T03:00:28;4.32;;;2.65;;
32613;SDS011;19031;51.400;6.770;2023-04-03T03:02:54;3.58;;;1.80;;
32613;SDS011;19031;51.400;6.770;2023-04-03T03:05:20;2.67;;;1.88;;
32613;SDS011;19031;51.400;6.770;2023-04-03T03:07:45;7.72;;;3.13;;
32613;SDS011;19031;51.400;6.770;2023-04-03T03:10:11;3.78;;;1.90;;
32613;SDS011;19031;51.400;6.770;2023-04-03T03:12:36;2.70;;;1.77;;
32613;SDS011;19031;51.400;6.770;2023-04-03T03:15:02;3.58;;;2.33;;
32613;SDS011;19031;51.400;6.770;2023-04-03T03:17:28;6.75;;;2.75;;
32613;SDS011;19031;51.400;6.770;2023-04-03T03:19:53;4.00;;;2.30;;
32613;SDS011;19031;51.400;6.770;2023-04-03T03:22:19;4.70;;;2.38;;
32613;SDS011;19031;51.400;6.770;2023-04-03T03:24:45;4.03;;;2.40;;
32613;SDS011;19031;51.400;6.770;2023-04-03T03:27:10;4.97;;;2.47;;
32613;SDS011;19031;51.400;6.770;2023-04-03T03:29:37;3.97;;;1.70;;
32613;SDS011;19031;51.400;6.770;2023-04-03T03:32:02;4.03;;;2.22;;
32613;SDS011;19031;51.400;6.770;2023-04-03T03:34:28;2.80;;;1.45;;
32613;SDS011;19031;51.400;6.770;2023-04-03T03:36:54;8.25;;;2.63;;
32613;SDS011;19031;51.400;6.770;2023-04-03T03:39:20;2.97;;;1.70;;
32613;SDS011;19031;51.400;6.770;2023-04-03T03:41:46;1.92;;;1.67;;
32613;SDS011;19031;51.400;6.770;2023-04-03T03:44:12;4.50;;;1.48;;
32613;SDS011;19031;51.400;6.770;2023-04-03T03:46:37;2.55;;;1.73;;
32613;SDS011;19031;51.400;6.770;2023-04-03T03:49:03;2.58;;;1.45;;
32613;SDS011;19031;51.400;6.770;2023-04-03T03:51:29;3.50;;;1.63;;
32613;SDS011;19031;51.400;6.770;2023-04-03T03:53:54;2.03;;;0.98;;
32613;SDS011;19031;51.400;6.770;2023-04-03T03:56:20;5.90;;;1.52;;
32613;SDS011;19031;51.400;6.770;2023-04-03T03:58:46;4.10;;;1.95;;
32613;SDS011;19031;51.400;6.770;2023-04-03T04:01:12;7.47;;;2.03;;
32613;SDS011;19031;51.400;6.770;2023-04-03T04:03:38;3.83;;;1.83;;
32613;SDS011;19031;51.400;6.770;2023-04-03T04:06:03;2.15;;;1.10;;
32613;SDS011;19031;51.400;6.770;2023-04-03T04:08:29;2.67;;;1.30;;
32613;SDS011;19031;51.400;6.770;2023-04-03T04:10:55;3.95;;;1.50;;
32613;SDS011;19031;51.400;6.770;2023-04-03T04:13:20;2.88;;;1.42;;
32613;SDS011;19031;51.400;6.770;2023-04-03T04:15:46;1.50;;;0.98;;
32613;SDS011;19031;51.400;6.770;2023-04-03T04:18:11;4.25;;;1.50;;
32613;SDS011;19031;51.400;6.770;2023-04-03T04:20:37;3.03;;;1.35;;
32613;SDS011;19031;51.400;6.770;2023-04-03T04:23:02;3.13;;;0.80;;
32613;SDS011;19031;51.400;6.770;2023-04-03T04:25:28;2.63;;;0.82;;
32613;SDS011;19031;51.400;6.770;2023-04-03T04:27:54;2.72;;;0.75;;
32613;SDS011;19031;51.400;6.770;2023-04-03T04:30:19;2.35;;;1.17;;
32613;SDS011;19031;51.400;6.770;2023-04-03T04:32:45;4.32;;;1.60;;
32613;SDS011;19031;51.400;6.770;2023-04-03T04:35:11;2.53;;;0.90;;
32613;SDS011;19031;51.400;6.770;2023-04-03T04:37:37;3.95;;;1.15;;
32613;SDS011;19031;51.400;6.770;2023-04-03T04:40:02;5.65;;;1.33;;
32613;SDS011;19031;51.400;6.770;2023-04-03T04:42:28;2.88;;;1.02;;
32613;SDS011;19031;51.400;6.770;2023-04-03T04:44:54;2.20;;;1.38;;
32613;SDS011;19031;51.400;6.770;2023-04-03T04:47:19;4.22;;;1.40;;
32613;SDS011;19031;51.400;6.770;2023-04-03T04:49:45;1.48;;;0.93;;
32613;SDS011;19031;51.400;6.770;2023-04-03T04:52:12;0.98;;;0.68;;
32613;SDS011;19031;51.400;6.770;2023-04-03T04:54:38;2.63;;;0.90;;
32613;SDS011;19031;51.400;6.770;2023-04-03T04:57:03;2.47;;;1.35;;
32613;SDS011;19031;51.400;6.770;2023-04-03T04:59:29;2.97;;;0.65;;
32613;SDS011;19031;51.400;6.770;2023-04-03T05:01:54;2.60;;;1.20;;
32613;SDS011;19031;51.400;6.770;2023-04-03T05:04:20;1.55;;;0.80;;
32613;SDS011;19031;51.400;6.770;2023-04-03T05:06:46;3.60;;;1.45;;
32613;SDS011;19031;51.400;6.770;2023-04-03T05:09:11;2.88;;;1.00;;
32613;SDS011;19031;51.400;6.770;2023-04-03T05:11:37;2.95;;;0.57;;
32613;SDS011;19031;51.400;6.770;2023-04-03T05:14:03;2.30;;;1.00;;
32613;SDS011;19031;51.400;6.770;2023-04-03T05:16:31;2.75;;;0.60;;
32613;SDS011;19031;51.400;6.770;2023-04-03T05:18:57;2.38;;;1.02;;
32613;SDS011;19031;51.400;6.770;2023-04-03T05:21:22;1.77;;;1.00;;
32613;SDS011;19031;51.400;6.770;2023-04-03T05:23:50;4.85;;;1.10;;
32613;SDS011;19031;51.400;6.770;2023-04-03T05:26:16;1.83;;;0.90;;
32613;SDS011;19031;51.400;6.770;2023-04-03T05:28:42;2.03;;;0.82;;
32613;SDS011;19031;51.400;6.770;2023-04-03T05:31:07;3.35;;;1.10;;
32613;SDS011;19031;51.400;6.770;2023-04-03T05:33:33;3.00;;;1.30;;
32613;SDS011;19031;51.400;6.770;2023-04-03T05:36:02;2.63;;;0.90;;
32613;SDS011;19031;51.400;6.770;2023-04-03T05:38:29;2.20;;;1.00;;
32613;SDS011;19031;51.400;6.770;2023-04-03T05:40:54;11.05;;;1.30;;
32613;SDS011;19031;51.400;6.770;2023-04-03T05:43:20;1.88;;;1.17;;
32613;SDS011;19031;51.400;6.770;2023-04-03T05:45:47;1.88;;;1.00;;
32613;SDS011;19031;51.400;6.770;2023-04-03T05:48:13;8.80;;;1.15;;
32613;SDS011;19031;51.400;6.770;2023-04-03T05:50:38;4.30;;;0.77;;
32613;SDS011;19031;51.400;6.770;2023-04-03T05:53:06;1.13;;;0.70;;
32613;SDS011;19031;51.400;6.770;2023-04-03T05:55:35;5.50;;;1.50;;
32613;SDS011;19031;51.400;6.770;2023-04-03T05:58:01;3.53;;;0.73;;
32613;SDS011;19031;51.400;6.770;2023-04-03T06:00:26;5.45;;;1.05;;
32613;SDS011;19031;51.400;6.770;2023-04-03T06:02:52;0.68;;;0.47;;
32613;SDS011;19031;51.400;6.770;2023-04-03T06:05:18;2.78;;;1.13;;
32613;SDS011;19031;51.400;6.770;2023-04-03T06:07:43;1.58;;;1.10;;
32613;SDS011;19031;51.400;6.770;2023-04-03T06:10:10;9.10;;;1.48;;
32613;SDS011;19031;51.400;6.770;2023-04-03T06:12:36;3.92;;;1.48;;
32613;SDS011;19031;51.400;6.770;2023-04-03T06:15:02;3.17;;;1.50;;
32613;SDS011;19031;51.400;6.770;2023-04-03T06:17:28;1.40;;;0.90;;
32613;SDS011;19031;51.400;6.770;2023-04-03T06:19:54;3.05;;;1.27;;
32613;SDS011;19031;51.400;6.770;2023-04-03T06:22:20;7.70;;;1.10;;
32613;SDS011;19031;51.400;6.770;2023-04-03T06:24:46;5.40;;;0.80;;
32613;SDS011;19031;51.400;6.770;2023-04-03T06:27:12;1.52;;;0.82;;
32613;SDS011;19031;51.400;6.770;2023-04-03T06:29:37;1.85;;;0.70;;
32613;SDS011;19031;51.400;6.770;2023-04-03T06:32:03;10.60;;;0.95;;
32613;SDS011;19031;51.400;6.770;2023-04-03T06:34:29;5.38;;;0.93;;
32613;SDS011;19031;51.400;6.770;2023-04-03T06:36:54;2.08;;;0.82;;
32613;SDS011;19031;51.400;6.770;2023-04-03T06:39:20;4.15;;;0.85;;
32613;SDS011;19031;51.400;6.770;2023-04-03T06:41:49;1.10;;;0.65;;
32613;SDS011;19031;51.400;6.770;2023-04-03T06:44:16;8.20;;;0.98;;
32613;SDS011;19031;51.400;6.770;2023-04-03T06:46:42;1.77;;;0.90;;
32613;SDS011;19031;51.400;6.770;2023-04-03T06:49:08;7.50;;;1.08;;
32613;SDS011;19031;51.400;6.770;2023-04-03T06:51:35;3.03;;;0.93;;
32613;SDS011;19031;51.400;6.770;2023-04-03T06:54:01;2.85;;;0.80;;
32613;SDS011;19031;51.400;6.770;2023-04-03T06:56:28;6.00;;;1.25;;
32613;SDS011;19031;51.400;6.770;2023-04-03T06:58:54;4.97;;;1.92;;
32613;SDS011;19031;51.400;6.770;2023-04-03T07:01:21;4.32;;;1.00;;
32613;SDS011;19031;51.400;6.770;2023-04-03T07:03:47;4.05;;;1.27;;
32613;SDS011;19031;51.400;6.770;2023-04-03T07:06:15;1.85;;;0.77;;
32613;SDS011;19031;51.400;6.770;2023-04-03T07:08:42;3.80;;;1.27;;
32613;SDS011;19031;51.400;6.770;2023-04-03T07:11:10;4.57;;;1.20;;
32613;SDS011;19031;51.400;6.770;2023-04-03T07:13:36;1.73;;;1.40;;
32613;SDS011;19031;51.400;6.770;2023-04-03T07:16:02;6.10;;;1.10;;
32613;SDS011;19031;51.400;6.770;2023-04-03T07:18:29;3.20;;;1.67;;
32613;SDS011;19031;51.400;6.770;2023-04-03T07:20:56;3.95;;;1.20;;
32613;SDS011;19031;51.400;6.770;2023-04-03T07:23:22;2.67;;;0.40;;
32613;SDS011;19031;51.400;6.770;2023-04-03T07:25:48;5.30;;;1.27;;
32613;SDS011;19031;51.400;6.770;2023-04-03T07:28:16;1.98;;;0.63;;
32613;SDS011;19031;51.400;6.770;2023-04-03T07:30:46;3.65;;;1.30;;
32613;SDS011;19031;51.400;6.770;2023-04-03T07:33:33;3.17;;;1.20;;
32613;SDS011;19031;51.400;6.770;2023-04-03T07:36:00;3.45;;;1.35;;
32613;SDS011;19031;51.400;6.770;2023-04-03T07:38:26;4.82;;;1.08;;
32613;SDS011;19031;51.400;6.770;2023-04-03T07:40:52;4.25;;;0.95;;
32613;SDS011;19031;51.400;6.770;2023-04-03T07:43:18;8.60;;;1.23;;
32613;SDS011;19031;51.400;6.770;2023-04-03T07:45:45;3.22;;;1.35;;
32613;SDS011;19031;51.400;6.770;2023-04-03T07:48:14;5.90;;;1.67;;
32613;SDS011;19031;51.400;6.770;2023-04-03T07:50:42;2.13;;;1.10;;
32613;SDS011;19031;51.400;6.770;2023-04-03T07:53:08;4.15;;;0.77;;
32613;SDS011;19031;51.400;6.770;2023-04-03T07:55:34;2.80;;;1.08;;
32613;SDS011;19031;51.400;6.770;2023-04-03T07:58:07;5.30;;;1.05;;
32613;SDS011;19031;51.400;6.770;2023-04-03T08:00:37;3.80;;;1.20;;
32613;SDS011;19031;51.400;6.770;2023-04-03T08:03:03;3.85;;;1.02;;
32613;SDS011;19031;51.400;6.770;2023-04-03T08:05:29;3.47;;;0.95;;
32613;SDS011;19031;51.400;6.770;2023-04-03T08:07:54;4.82;;;0.70;;
32613;SDS011;19031;51.400;6.770;2023-04-03T08:10:20;6.20;;;1.20;;
32613;SDS011;19031;51.400;6.770;2023-04-03T08:12:46;1.55;;;0.77;;
32613;SDS011;19031;51.400;6.770;2023-04-03T08:15:12;2.03;;;1.02;;
32613;SDS011;19031;51.400;6.770;2023-04-03T08:17:38;8.50;;;1.35;;
32613;SDS011;19031;51.400;6.770;2023-04-03T08:20:04;1.73;;;0.85;;
32613;SDS011;19031;51.400;6.770;2023-04-03T08:22:31;1.70;;;0.70;;
32613;SDS011;19031;51.400;6.770;2023-04-03T08:24:57;1.00;;;0.50;;
32613;SDS011;19031;51.400;6.770;2023-04-03T08:27:23;1.00;;;0.70;;
32613;SDS011;19031;51.400;6.770;2023-04-03T08:29:49;2.38;;;0.65;;
32613;SDS011;19031;51.400;6.770;2023-04-03T08:32:14;2.35;;;0.93;;
32613;SDS011;19031;51.400;6.770;2023-04-03T08:34:40;1.30;;;0.50;;
32613;SDS011;19031;51.400;6.770;2023-04-03T08:37:06;1.67;;;0.80;;
32613;SDS011;19031;51.400;6.770;2023-04-03T08:39:32;1.45;;;0.90;;
32613;SDS011;19031;51.400;6.770;2023-04-03T08:41:58;2.25;;;0.40;;
32613;SDS011;19031;51.400;6.770;2023-04-03T08:47:23;2.85;;;0.55;;
32613;SDS011;19031;51.400;6.770;2023-04-03T08:50:12;1.55;;;0.77;;
32613;SDS011;19031;51.400;6.770;2023-04-03T08:52:45;1.40;;;0.77;;
32613;SDS011;19031;51.400;6.770;2023-04-03T08:57:46;4.85;;;1.00;;
32613;SDS011;19031;51.400;6.770;2023-04-03T09:05:16;4.85;;;0.90;;
32613;SDS011;19031;51.400;6.770;2023-04-03T09:08:00;1.17;;;0.43;;
32613;SDS011;19031;51.400;6.770;2023-04-03T09:10:52;1.65;;;0.80;;
32613;SDS011;19031;51.400;6.770;2023-04-03T09:13:33;1.60;;;0.60;;
32613;SDS011;19031;51.400;6.770;2023-04-03T09:16:12;3.88;;;0.80;;
32613;SDS011;19031;51.400;6.770;2023-04-03T09:21:36;1.27;;;0.73;;
32613;SDS011;19031;51.400;6.770;2023-04-03T09:24:04;1.77;;;0.52;;
32613;SDS011;19031;51.400;6.770;2023-04-03T09:26:45;2.80;;;0.60;;
32613;SDS011;19031;51.400;6.770;2023-04-03T09:29:18;3.45;;;0.60;;
32613;SDS011;19031;51.400;6.770;2023-04-03T09:31:46;0.70;;;0.30;;
32613;SDS011;19031;51.400;6.770;2023-04-03T09:34:20;1.92;;;0.30;;
32613;SDS011;19031;51.400;6.770;2023-04-03T09:36:50;0.98;;;0.47;;
32613;SDS011;19031;51.400;6.770;2023-04-03T09:39:21;7.00;;;0.75;;
32613;SDS011;19031;51.400;6.770;2023-04-03T09:44:40;0.93;;;0.40;;
32613;SDS011;19031;51.400;6.770;2023-04-03T09:49:47;1.35;;;0.60;;
32613;SDS011;19031;51.400;6.770;2023-04-03T09:52:20;1.80;;;0.25;;
32613;SDS011;19031;51.400;6.770;2023-04-03T09:54:49;0.90;;;0.57;;
32613;SDS011;19031;51.400;6.770;2023-04-03T09:57:15;0.50;;;0.25;;
32613;SDS011;19031;51.400;6.770;2023-04-03T09:59:43;0.50;;;0.10;;
32613;SDS011;19031;51.400;6.770;2023-04-03T10:02:32;2.20;;;0.25;;
32613;SDS011;19031;51.400;6.770;2023-04-03T10:05:26;0.32;;;0.22;;
32613;SDS011;19031;51.400;6.770;2023-04-03T10:08:06;1.48;;;0.40;;
32613;SDS011;19031;51.400;6.770;2023-04-03T10:10:42;1.05;;;0.30;;
32613;SDS011;19031;51.400;6.770;2023-04-03T10:18:43;1.88;;;0.43;;
32613;SDS011;19031;51.400;6.770;2023-04-03T10:21:41;0.70;;;0.30;;
32613;SDS011;19031;51.400;6.770;2023-04-03T10:24:28;3.20;;;0.73;;
32613;SDS011;19031;51.400;6.770;2023-04-03T10:35:18;1.00;;;0.20;;
32613;SDS011;19031;51.400;6.770;2023-04-03T10:43:14;3.07;;;0.60;;
32613;SDS011;19031;51.400;6.770;2023-04-03T10:45:50;0.52;;;0.30;;
32613;SDS011;19031;51.400;6.770;2023-04-03T10:54:05;2.00;;;0.43;;
32613;SDS011;19031;51.400;6.770;2023-04-03T10:59:18;2.05;;;0.43;;
32613;SDS011;19031;51.400;6.770;2023-04-03T11:01:59;1.25;;;0.60;;
32613;SDS011;19031;51.400;6.770;2023-04-03T11:04:29;2.55;;;0.45;;
32613;SDS011;19031;51.400;6.770;2023-04-03T11:09:34;0.40;;;0.30;;
32613;SDS011;19031;51.400;6.770;2023-04-03T11:12:04;1.40;;;0.30;;
32613;SDS011;19031;51.400;6.770;2023-04-03T11:22:24;1.15;;;0.32;;
32613;SDS011;19031;51.400;6.770;2023-04-03T11:24:59;2.20;;;0.68;;
32613;SDS011;19031;51.400;6.770;2023-04-03T11:27:43;3.58;;;0.52;;
32613;SDS011;19031;51.400;6.770;2023-04-03T11:30:21;2.22;;;0.30;;
32613;SDS011;19031;51.400;6.770;2023-04-03T11:35:42;2.55;;;0.90;;
32613;SDS011;19031;51.400;6.770;2023-04-03T11:38:10;4.80;;;0.40;;
32613;SDS011;19031;51.400;6.770;2023-04-03T11:40:43;2.15;;;0.55;;
32613;SDS011;19031;51.400;6.770;2023-04-03T11:43:31;1.48;;;0.70;;
32613;SDS011;19031;51.400;6.770;2023-04-03T11:46:02;1.30;;;0.60;;
32613;SDS011;19031;51.400;6.770;2023-04-03T11:50:58;2.40;;;0.75;;
32613;SDS011;19031;51.400;6.770;2023-04-03T11:55:59;1.60;;;0.50;;
32613;SDS011;19031;51.400;6.770;2023-04-03T12:01:44;1.17;;;0.63;;
32613;SDS011;19031;51.400;6.770;2023-04-03T12:04:12;1.17;;;0.50;;
32613;SDS011;19031;51.400;6.770;2023-04-03T12:06:48;2.30;;;0.43;;
32613;SDS011;19031;51.400;6.770;2023-04-03T12:09:27;4.35;;;0.52;;
32613;SDS011;19031;51.400;6.770;2023-04-03T12:12:35;0.65;;;0.30;;
32613;SDS011;19031;51.400;6.770;2023-04-03T12:15:12;4.75;;;0.82;;
32613;SDS011;19031;51.400;6.770;2023-04-03T12:17:47;1.38;;;0.35;;
32613;SDS011;19031;51.400;6.770;2023-04-03T12:23:23;1.27;;;0.52;;
32613;SDS011;19031;51.400;6.770;2023-04-03T12:25:59;0.98;;;0.35;;
32613;SDS011;19031;51.400;6.770;2023-04-03T12:28:30;1.08;;;0.50;;
32613;SDS011;19031;51.400;6.770;2023-04-03T12:31:02;2.65;;;0.50;;
32613;SDS011;19031;51.400;6.770;2023-04-03T12:36:07;1.30;;;0.40;;
32613;SDS011;19031;51.400;6.770;2023-04-03T12:44:12;2.20;;;0.43;;
32613;SDS011;19031;51.400;6.770;2023-04-03T12:46:45;1.50;;;0.28;;
32613;SDS011;19031;51.400;6.770;2023-04-03T12:51:53;2.65;;;0.55;;
32613;SDS011;19031;51.400;6.770;2023-04-03T12:54:22;1.30;;;0.70;;
32613;SDS011;19031;51.400;6.770;2023-04-03T12:57:13;1.85;;;0.65;;
32613;SDS011;19031;51.400;6.770;2023-04-03T12:59:42;0.57;;;0.38;;
32613;SDS011;19031;51.400;6.770;2023-04-03T13:02:31;1.38;;;0.38;;
32613;SDS011;19031;51.400;6.770;2023-04-03T13:05:09;1.77;;;0.40;;
32613;SDS011;19031;51.400;6.770;2023-04-03T13:07:41;1.00;;;0.40;;
32613;SDS011;19031;51.400;6.770;2023-04-03T13:12:34;4.20;;;0.50;;
32613;SDS011;19031;51.400;6.770;2023-04-03T13:15:25;0.35;;;0.20;;
32613;SDS011;19031;51.400;6.770;2023-04-03T13:18:10;1.08;;;0.50;;
32613;SDS011;19031;51.400;6.770;2023-04-03T13:20:51;1.80;;;0.80;;
32613;SDS011;19031;51.400;6.770;2023-04-03T13:23:17;1.02;;;0.47;;
32613;SDS011;19031;51.400;6.770;2023-04-03T13:25:45;0.30;;;0.20;;
32613;SDS011;19031;51.400;6.770;2023-04-03T13:28:13;2.33;;;0.60;;
32613;SDS011;19031;51.400;6.770;2023-04-03T13:31:03;1.50;;;0.60;;
32613;SDS011;19031;51.400;6.770;2023-04-03T13:34:02;2.05;;;0.47;;
32613;SDS011;19031;51.400;6.770;2023-04-03T13:36:40;1.88;;;0.40;;
32613;SDS011;19031;51.400;6.770;2023-04-03T13:41:39;0.80;;;0.40;;
32613;SDS011;19031;51.400;6.770;2023-04-03T13:44:17;4.40;;;0.60;;
32613;SDS011;19031;51.400;6.770;2023-04-03T13:46:45;2.28;;;0.52;;
32613;SDS011;19031;51.400;6.770;2023-04-03T13:49:22;1.70;;;0.43;;
32613;SDS011;19031;51.400;6.770;2023-04-03T13:52:17;0.55;;;0.30;;
32613;SDS011;19031;51.400;6.770;2023-04-03T13:54:47;1.65;;;0.40;;
32613;SDS011;19031;51.400;6.770;2023-04-03T13:57:17;1.48;;;0.60;;
32613;SDS011;19031;51.400;6.770;2023-04-03T13:59:42;0.65;;;0.28;;
32613;SDS011;19031;51.400;6.770;2023-04-03T14:07:09;1.00;;;0.43;;
32613;SDS011;19031;51.400;6.770;2023-04-03T14:09:36;0.82;;;0.40;;
32613;SDS011;19031;51.400;6.770;2023-04-03T14:12:04;2.75;;;0.32;;
32613;SDS011;19031;51.400;6.770;2023-04-03T14:14:34;2.20;;;0.40;;
32613;SDS011;19031;51.400;6.770;2023-04-03T14:17:02;1.98;;;0.45;;
32613;SDS011;19031;51.400;6.770;2023-04-03T14:19:35;3.22;;;0.80;;
32613;SDS011;19031;51.400;6.770;2023-04-03T14:22:06;3.30;;;0.40;;
32613;SDS011;19031;51.400;6.770;2023-04-03T14:24:47;0.65;;;0.40;;
32613;SDS011;19031;51.400;6.770;2023-04-03T14:29:53;2.90;;;0.57;;
32613;SDS011;19031;51.400;6.770;2023-04-03T14:32:21;1.15;;;0.40;;
32613;SDS011;19031;51.400;6.770;2023-04-03T14:34:48;0.60;;;0.20;;
32613;SDS011;19031;51.400;6.770;2023-04-03T14:37:17;1.20;;;0.40;;
32613;SDS011;19031;51.400;6.770;2023-04-03T14:39:46;1.17;;;0.50;;
32613;SDS011;19031;51.400;6.770;2023-04-03T14:42:14;3.08;;;0.45;;
32613;SDS011;19031;51.400;6.770;2023-04-03T14:44:43;0.55;;;0.22;;
32613;SDS011;19031;51.400;6.770;2023-04-03T14:47:10;0.98;;;0.50;;
32613;SDS011;19031;51.400;6.770;2023-04-03T14:49:39;0.25;;;0.20;;
32613;SDS011;19031;51.400;6.770;2023-04-03T14:52:05;1.38;;;0.35;;
32613;SDS011;19031;51.400;6.770;2023-04-03T14:54:39;0.40;;;0.40;;
32613;SDS011;19031;51.400;6.770;2023-04-03T14:57:05;1.65;;;0.55;;
32613;SDS011;19031;51.400;6.770;2023-04-03T14:59:35;0.50;;;0.30;;
32613;SDS011;19031;51.400;6.770;2023-04-03T15:02:00;1.13;;;0.40;;
32613;SDS011;19031;51.400;6.770;2023-04-03T15:04:26;0.80;;;0.30;;
32613;SDS011;19031;51.400;6.770;2023-04-03T15:06:52;2.03;;;0.40;;
32613;SDS011;19031;51.400;6.770;2023-04-03T15:11:49;0.73;;;0.45;;
32613;SDS011;19031;51.400;6.770;2023-04-03T15:14:16;2.65;;;0.40;;
32613;SDS011;19031;51.400;6.770;2023-04-03T15:16:42;4.65;;;0.40;;
32613;SDS011;19031;51.400;6.770;2023-04-03T15:19:08;2.42;;;0.57;;
32613;SDS011;19031;51.400;6.770;2023-04-03T15:21:34;1.67;;;0.50;;
32613;SDS011;19031;51.400;6.770;2023-04-03T15:24:00;1.05;;;0.73;;
32613;SDS011;19031;51.400;6.770;2023-04-03T15:26:25;1.30;;;0.60;;
32613;SDS011;19031;51.400;6.770;2023-04-03T15:28:51;2.33;;;0.52;;
32613;SDS011;19031;51.400;6.770;2023-04-03T15:31:17;3.67;;;0.70;;
32613;SDS011;19031;51.400;6.770;2023-04-03T15:33:42;3.92;;;2.28;;
32613;SDS011;19031;51.400;6.770;2023-04-03T15:36:08;0.63;;;0.22;;
32613;SDS011;19031;51.400;6.770;2023-04-03T15:38:34;2.70;;;0.63;;
32613;SDS011;19031;51.400;6.770;2023-04-03T15:41:00;1.58;;;0.47;;
32613;SDS011;19031;51.400;6.770;2023-04-03T15:43:26;1.23;;;0.35;;
32613;SDS011;19031;51.400;6.770;2023-04-03T15:45:51;1.92;;;0.52;;
32613;SDS011;19031;51.400;6.770;2023-04-03T15:48:20;1.35;;;0.65;;
32613;SDS011;19031;51.400;6.770;2023-04-03T15:50:46;1.33;;;0.50;;
32613;SDS011;19031;51.400;6.770;2023-04-03T15:53:12;1.48;;;0.50;;
32613;SDS011;19031;51.400;6.770;2023-04-03T15:55:37;1.23;;;0.50;;
32613;SDS011;19031;51.400;6.770;2023-04-03T15:58:03;2.28;;;0.75;;
32613;SDS011;19031;51.400;6.770;2023-04-03T16:00:29;0.93;;;0.40;;
32613;SDS011;19031;51.400;6.770;2023-04-03T16:02:58;0.95;;;0.43;;
32613;SDS011;19031;51.400;6.770;2023-04-03T16:05:28;1.00;;;0.47;;
32613;SDS011;19031;51.400;6.770;2023-04-03T16:07:55;1.77;;;0.70;;
32613;SDS011;19031;51.400;6.770;2023-04-03T16:10:21;4.47;;;0.90;;
32613;SDS011;19031;51.400;6.770;2023-04-03T16:12:47;1.75;;;0.45;;
32613;SDS011;19031;51.400;6.770;2023-04-03T16:15:13;2.05;;;0.60;;
32613;SDS011;19031;51.400;6.770;2023-04-03T16:17:38;2.97;;;0.80;;
32613;SDS011;19031;51.400;6.770;2023-04-03T16:20:06;1.40;;;0.43;;
32613;SDS011;19031;51.400;6.770;2023-04-03T16:22:33;2.10;;;0.45;;
32613;SDS011;19031;51.400;6.770;2023-04-03T16:24:59;1.23;;;0.73;;
32613;SDS011;19031;51.400;6.770;2023-04-03T16:27:24;2.65;;;0.30;;
32613;SDS011;19031;51.400;6.770;2023-04-03T16:29:53;3.08;;;0.60;;
32613;SDS011;19031;51.400;6.770;2023-04-03T16:32:19;2.05;;;0.80;;
32613;SDS011;19031;51.400;6.770;2023-04-03T16:34:45;1.33;;;0.63;;
32613;SDS011;19031;51.400;6.770;2023-04-03T16:37:11;3.13;;;0.50;;
32613;SDS011;19031;51.400;6.770;2023-04-03T16:39:37;3.50;;;0.70;;
32613;SDS011;19031;51.400;6.770;2023-04-03T16:42:02;1.23;;;0.75;;
32613;SDS011;19031;51.400;6.770;2023-04-03T16:44:28;2.83;;;0.70;;